Wetterdaten: Woche 14.04.14 - 20.04.14 (KW16)
Datum Zeit Temp. Aussen +5cm Feuchte Auss Luftdruck Regen Sonnenschein Regendauer UV Solar Windben
14.04.2014 00:00 6,5 C 5,2 C 84 % 1017,7 hPa 0,0 l/m 0,00 h 0,00 h 0,0 UV-I 0 W/m 0,4 km/h (0 Bft)
14.04.2014 01:00 7,4 C 6,6 C 82 % 1016,9 hPa 0,0 l/m 0,00 h 0,00 h 0,0 UV-I 0 W/m 4,5 km/h (1 Bft)
14.04.2014 02:00 8,2 C 7,1 C 79 % 1015,7 hPa 0,0 l/m 0,00 h 0,00 h 0,0 UV-I 0 W/m 7,9 km/h (2 Bft)
14.04.2014 03:00 8,7 C 7,3 C 79 % 1015,2 hPa 0,0 l/m 0,00 h 0,00 h 0,0 UV-I 0 W/m 9,9 km/h (2 Bft)
14.04.2014 04:00 8,7 C 7,6 C 82 % 1014,9 hPa 0,0 l/m 0,00 h 0,00 h 0,0 UV-I 0 W/m 12,2 km/h (3 Bft)
14.04.2014 05:00 8,9 C 7,8 C 84 % 1014,8 hPa 0,0 l/m 0,00 h 0,00 h 0,0 UV-I 0 W/m 9,5 km/h (2 Bft)
14.04.2014 06:00 8,6 C 7,4 C 86 % 1014,8 hPa 0,0 l/m 0,07 h 0,00 h 0,0 UV-I 10 W/m 5,3 km/h (1 Bft)
14.04.2014 07:00 8,9 C 7,8 C 83 % 1015,4 hPa 0,0 l/m 0,00 h 0,07 h 0,0 UV-I 36 W/m 11,9 km/h (2 Bft)
14.04.2014 08:00 8,9 C 7,9 C 76 % 1016,4 hPa 0,0 l/m 0,40 h 0,03 h 0,0 UV-I 140 W/m 15,1 km/h (3 Bft)
14.04.2014 09:00 9,7 C 9,2 C 75 % 1017,0 hPa 0,0 l/m 0,43 h 0,00 h 0,0 UV-I 220 W/m 16,1 km/h (3 Bft)
14.04.2014 10:00 10,8 C 10,5 C 70 % 1017,4 hPa 0,0 l/m 0,30 h 0,00 h 0,9 UV-I 296 W/m 19,4 km/h (3 Bft)
14.04.2014 11:00 12,2 C 12,2 C 65 % 1017,6 hPa 0,0 l/m 0,60 h 0,00 h 1,3 UV-I 544 W/m 22,6 km/h (4 Bft)
14.04.2014 12:00 12,7 C 12,4 C 65 % 1017,7 hPa 0,0 l/m 0,57 h 0,13 h 2,0 UV-I 572 W/m 18,4 km/h (3 Bft)
14.04.2014 13:00 12,0 C 10,6 C 67 % 1017,8 hPa 0,4 l/m 0,40 h 0,43 h 1,2 UV-I 459 W/m 23,3 km/h (4 Bft)
14.04.2014 14:00 11,3 C 9,4 C 74 % 1018,0 hPa 0,0 l/m 0,47 h 0,40 h 2,0 UV-I 421 W/m 22,1 km/h (4 Bft)
14.04.2014 15:00 11,3 C 10,5 C 68 % 1018,2 hPa 0,0 l/m 0,23 h 0,20 h 1,1 UV-I 314 W/m 23,2 km/h (4 Bft)
14.04.2014 16:00 12,0 C 11,5 C 61 % 1018,7 hPa 0,0 l/m 0,37 h 0,00 h 1,2 UV-I 338 W/m 28,8 km/h (5 Bft)
14.04.2014 17:00 11,8 C 11,1 C 62 % 1019,1 hPa 0,0 l/m 0,43 h 0,17 h 0,7 UV-I 262 W/m 23,3 km/h (4 Bft)
14.04.2014 18:00 9,3 C 7,8 C 74 % 1020,0 hPa 0,0 l/m 0,07 h 0,20 h 0,0 UV-I 88 W/m 22,5 km/h (4 Bft)
14.04.2014 19:00 8,3 C 6,5 C 81 % 1020,4 hPa 0,4 l/m 0,23 h 0,23 h 0,0 UV-I 53 W/m 16,2 km/h (3 Bft)
14.04.2014 20:00 7,3 C 5,1 C 82 % 1021,2 hPa 0,0 l/m 0,00 h 0,00 h 0,0 UV-I 9 W/m 8,2 km/h (2 Bft)
14.04.2014 21:00 6,5 C 4,6 C 83 % 1021,8 hPa 0,0 l/m 0,00 h 0,07 h 0,0 UV-I 0 W/m 2,7 km/h (1 Bft)
14.04.2014 22:00 6,0 C 4,5 C 85 % 1022,3 hPa 0,0 l/m 0,00 h 0,20 h 0,0 UV-I 0 W/m 2,7 km/h (1 Bft)
14.04.2014 23:00 5,2 C 3,4 C 89 % 1023,0 hPa 0,4 l/m 0,00 h 0,17 h 0,0 UV-I 0 W/m 6,3 km/h (2 Bft)
15.04.2014 00:00 4,3 C 2,7 C 92 % 1023,4 hPa 0,0 l/m 0,00 h 0,00 h 0,0 UV-I 0 W/m 0,0 km/h (0 Bft)
15.04.2014 01:00 4,1 C 2,5 C 93 % 1023,7 hPa 0,0 l/m 0,00 h 0,00 h 0,0 UV-I 0 W/m 0,0 km/h (0 Bft)
15.04.2014 02:00 3,8 C 2,1 C 93 % 1023,9 hPa 0,0 l/m 0,00 h 0,00 h 0,0 UV-I 0 W/m 0,1 km/h (0 Bft)
15.04.2014 03:00 4,1 C 2,9 C 93 % 1024,1 hPa 0,0 l/m 0,00 h 0,00 h 0,0 UV-I 0 W/m 0,7 km/h (0 Bft)
15.04.2014 04:00 3,6 C 2,2 C 92 % 1024,2 hPa 0,0 l/m 0,00 h 0,00 h 0,0 UV-I 0 W/m 0,4 km/h (0 Bft)
15.04.2014 05:00 3,5 C 2,4 C 92 % 1024,3 hPa 0,0 l/m 0,00 h 0,00 h 0,0 UV-I 0 W/m 0,2 km/h (0 Bft)
15.04.2014 06:00 3,0 C 1,9 C 93 % 1024,8 hPa 0,0 l/m 0,00 h 0,00 h 0,0 UV-I 7 W/m 0,0 km/h (0 Bft)
15.04.2014 07:00 3,8 C 3,1 C 93 % 1025,3 hPa 0,0 l/m 0,00 h 0,00 h 0,0 UV-I 35 W/m 1,5 km/h (1 Bft)
15.04.2014 08:00 5,0 C 4,1 C 90 % 1025,8 hPa 0,0 l/m 0,47 h 0,00 h 0,0 UV-I 168 W/m 7,1 km/h (2 Bft)
15.04.2014 09:00 6,8 C 6,1 C 81 % 1026,2 hPa 0,0 l/m 0,87 h 0,00 h 0,5 UV-I 345 W/m 13,4 km/h (3 Bft)
15.04.2014 10:00 7,5 C 7,1 C 71 % 1026,6 hPa 0,0 l/m 0,20 h 0,00 h 0,7 UV-I 235 W/m 19,3 km/h (3 Bft)
15.04.2014 11:00 8,5 C 8,5 C 69 % 1026,8 hPa 0,0 l/m 0,37 h 0,00 h 1,4 UV-I 451 W/m 17,8 km/h (3 Bft)
15.04.2014 12:00 8,7 C 8,9 C 68 % 1027,0 hPa 0,0 l/m 0,13 h 0,00 h 1,2 UV-I 320 W/m 16,5 km/h (3 Bft)
15.04.2014 13:00 9,0 C 9,2 C 66 % 1026,9 hPa 0,0 l/m 0,10 h 0,00 h 1,0 UV-I 344 W/m 18,5 km/h (3 Bft)
15.04.2014 14:00 9,8 C 10,0 C 65 % 1027,0 hPa 0,0 l/m 0,17 h 0,00 h 1,6 UV-I 385 W/m 14,6 km/h (3 Bft)
15.04.2014 15:00 10,2 C 10,2 C 61 % 1027,0 hPa 0,0 l/m 0,07 h 0,00 h 1,0 UV-I 291 W/m 16,2 km/h (3 Bft)
15.04.2014 16:00 10,5 C 10,2 C 62 % 1026,6 hPa 0,0 l/m 0,17 h 0,00 h 1,0 UV-I 309 W/m 14,6 km/h (3 Bft)
15.04.2014 17:00 10,4 C 9,9 C 62 % 1026,4 hPa 0,0 l/m 0,37 h 0,00 h 0,0 UV-I 265 W/m 18,7 km/h (3 Bft)
15.04.2014 18:00 10,4 C 9,5 C 58 % 1026,3 hPa 0,0 l/m 0,13 h 0,00 h 0,0 UV-I 111 W/m 17,9 km/h (3 Bft)
15.04.2014 19:00 9,4 C 8,1 C 60 % 1026,3 hPa 0,0 l/m 0,00 h 0,00 h 0,0 UV-I 33 W/m 14,3 km/h (3 Bft)
15.04.2014 20:00 8,2 C 6,7 C 65 % 1026,8 hPa 0,0 l/m 0,00 h 0,00 h 0,0 UV-I 10 W/m 6,0 km/h (2 Bft)
15.04.2014 21:00 6,7 C 5,2 C 71 % 1027,5 hPa 0,0 l/m 0,00 h 0,00 h 0,0 UV-I 0 W/m 1,0 km/h (0 Bft)
15.04.2014 22:00 5,3 C 3,7 C 76 % 1027,9 hPa 0,0 l/m 0,00 h 0,00 h 0,0 UV-I 0 W/m 0,4 km/h (0 Bft)
15.04.2014 23:00 4,3 C 2,4 C 81 % 1028,2 hPa 0,0 l/m 0,00 h 0,00 h 0,0 UV-I 0 W/m 0,1 km/h (0 Bft)
16.04.2014 00:00 3,2 C 1,3 C 86 % 1028,6 hPa 0,0 l/m 0,00 h 0,00 h 0,0 UV-I 0 W/m 0,0 km/h (0 Bft)
16.04.2014 01:00 2,3 C 0,7 C 89 % 1028,8 hPa 0,0 l/m 0,00 h 0,00 h 0,0 UV-I 0 W/m 0,0 km/h (0 Bft)
16.04.2014 02:00 1,5 C 0,0 C 91 % 1028,9 hPa 0,0 l/m 0,00 h 0,00 h 0,0 UV-I 0 W/m 0,0 km/h (0 Bft)
16.04.2014 03:00 0,9 C -0,5 C 93 % 1029,2 hPa 0,0 l/m 0,00 h 0,00 h 0,0 UV-I 0 W/m 0,0 km/h (0 Bft)
16.04.2014 04:00 0,3 C -0,8 C 94 % 1029,3 hPa 0,0 l/m 0,00 h 0,00 h 0,0 UV-I 0 W/m 0,0 km/h (0 Bft)
16.04.2014 05:00 -0,1 C -1,3 C 95 % 1029,5 hPa 0,0 l/m 0,00 h 0,00 h 0,0 UV-I 0 W/m 0,0 km/h (0 Bft)
16.04.2014 06:00 -0,3 C -1,6 C 95 % 1029,9 hPa 0,0 l/m 0,00 h 0,00 h 0,0 UV-I 9 W/m 0,0 km/h (0 Bft)
16.04.2014 07:00 0,3 C -0,7 C 96 % 1030,0 hPa 0,0 l/m 0,00 h 0,00 h 0,0 UV-I 27 W/m 0,0 km/h (0 Bft)
16.04.2014 08:00 2,9 C 1,8 C 93 % 1030,3 hPa 0,0 l/m 0,60 h 0,00 h 0,0 UV-I 172 W/m 0,2 km/h (0 Bft)
16.04.2014 09:00 7,0 C 6,3 C 80 % 1030,6 hPa 0,0 l/m 0,97 h 0,00 h 0,5 UV-I 375 W/m 3,7 km/h (1 Bft)
16.04.2014 10:00 9,9 C 9,0 C 69 % 1030,9 hPa 0,0 l/m 0,97 h 0,00 h 1,1 UV-I 518 W/m 5,1 km/h (1 Bft)
16.04.2014 11:00 11,6 C 11,0 C 61 % 1030,7 hPa 0,0 l/m 0,97 h 0,00 h 2,0 UV-I 642 W/m 8,8 km/h (2 Bft)
16.04.2014 12:00 12,8 C 12,5 C 55 % 1030,3 hPa 0,0 l/m 0,97 h 0,00 h 2,5 UV-I 710 W/m 9,4 km/h (2 Bft)
16.04.2014 13:00 14,2 C 13,5 C 47 % 1029,9 hPa 0,0 l/m 0,97 h 0,00 h 1,8 UV-I 746 W/m 9,0 km/h (2 Bft)
16.04.2014 14:00 14,5 C 13,3 C 46 % 1029,4 hPa 0,0 l/m 0,97 h 0,00 h 3,0 UV-I 725 W/m 8,2 km/h (2 Bft)
16.04.2014 15:00 15,1 C 14,0 C 46 % 1028,9 hPa 0,0 l/m 0,97 h 0,00 h 2,4 UV-I 658 W/m 8,0 km/h (2 Bft)
16.04.2014 16:00 15,8 C 16,1 C 42 % 1028,3 hPa 0,0 l/m 0,97 h 0,00 h 1,6 UV-I 554 W/m 8,3 km/h (2 Bft)
16.04.2014 17:00 15,5 C 13,8 C 42 % 1027,7 hPa 0,0 l/m 0,93 h 0,00 h 0,8 UV-I 402 W/m 5,3 km/h (1 Bft)
16.04.2014 18:00 15,1 C 12,8 C 44 % 1027,2 hPa 0,0 l/m 0,07 h 0,00 h 0,0 UV-I 77 W/m 3,6 km/h (1 Bft)
16.04.2014 19:00 14,2 C 11,5 C 46 % 1026,7 hPa 0,0 l/m 0,00 h 0,00 h 0,0 UV-I 31 W/m 0,1 km/h (0 Bft)
16.04.2014 20:00 11,6 C 8,5 C 57 % 1026,8 hPa 0,0 l/m 0,00 h 0,00 h 0,0 UV-I 9 W/m 0,0 km/h (0 Bft)
16.04.2014 21:00 9,3 C 6,5 C 68 % 1026,8 hPa 0,0 l/m 0,00 h 0,00 h 0,0 UV-I 0 W/m 0,0 km/h (0 Bft)
16.04.2014 22:00 8,2 C 5,5 C 72 % 1026,6 hPa 0,0 l/m 0,00 h 0,00 h 0,0 UV-I 0 W/m 0,0 km/h (0 Bft)
16.04.2014 23:00 7,2 C 4,8 C 79 % 1026,6 hPa 0,0 l/m 0,00 h 0,00 h 0,0 UV-I 0 W/m 0,1 km/h (0 Bft)
17.04.2014 00:00 8,0 C 5,3 C 68 % 1026,4 hPa 0,0 l/m 0,00 h 0,00 h 0,0 UV-I 0 W/m 0,8 km/h (0 Bft)
17.04.2014 01:00 7,1 C 5,1 C 71 % 1026,2 hPa 0,0 l/m 0,00 h 0,00 h 0,0 UV-I 0 W/m 2,6 km/h (1 Bft)
17.04.2014 02:00 6,4 C 4,6 C 73 % 1026,0 hPa 0,0 l/m 0,00 h 0,00 h 0,0 UV-I 0 W/m 1,1 km/h (0 Bft)
17.04.2014 03:00 5,7 C 4,1 C 76 % 1025,6 hPa 0,0 l/m 0,00 h 0,00 h 0,0 UV-I 0 W/m 3,4 km/h (1 Bft)
17.04.2014 04:00 5,1 C 3,7 C 79 % 1025,4 hPa 0,0 l/m 0,00 h 0,00 h 0,0 UV-I 0 W/m 4,1 km/h (1 Bft)
17.04.2014 05:00 4,6 C 3,3 C 80 % 1025,0 hPa 0,0 l/m 0,00 h 0,00 h 0,0 UV-I 0 W/m 7,0 km/h (2 Bft)
17.04.2014 06:00 4,5 C 3,3 C 80 % 1024,5 hPa 0,0 l/m 0,00 h 0,00 h 0,0 UV-I 10 W/m 13,7 km/h (3 Bft)
17.04.2014 07:00 4,6 C 3,5 C 81 % 1024,2 hPa 0,0 l/m 0,00 h 0,00 h 0,0 UV-I 28 W/m 10,8 km/h (2 Bft)
17.04.2014 08:00 6,2 C 4,8 C 78 % 1024,1 hPa 0,0 l/m 0,60 h 0,00 h 0,0 UV-I 179 W/m 11,9 km/h (2 Bft)
17.04.2014 09:00 9,6 C 8,6 C 69 % 1023,7 hPa 0,0 l/m 0,97 h 0,00 h 0,5 UV-I 386 W/m 11,3 km/h (2 Bft)
17.04.2014 10:00 12,7 C 11,7 C 58 % 1023,3 hPa 0,0 l/m 0,97 h 0,00 h 1,2 UV-I 528 W/m 11,1 km/h (2 Bft)
17.04.2014 11:00 14,5 C 14,0 C 51 % 1022,3 hPa 0,0 l/m 0,97 h 0,00 h 1,7 UV-I 539 W/m 10,4 km/h (2 Bft)
17.04.2014 12:00 15,4 C 15,7 C 48 % 1021,2 hPa 0,0 l/m 0,80 h 0,00 h 1,7 UV-I 494 W/m 10,8 km/h (2 Bft)
17.04.2014 13:00 16,6 C 16,4 C 45 % 1020,2 hPa 0,0 l/m 0,90 h 0,00 h 1,9 UV-I 732 W/m 11,3 km/h (2 Bft)
17.04.2014 14:00 17,8 C 16,9 C 43 % 1018,8 hPa 0,0 l/m 0,90 h 0,00 h 2,9 UV-I 709 W/m 12,3 km/h (3 Bft)
17.04.2014 15:00 18,6 C 17,8 C 40 % 1017,4 hPa 0,0 l/m 0,97 h 0,00 h 2,4 UV-I 666 W/m 13,6 km/h (3 Bft)
17.04.2014 16:00 18,8 C 18,6 C 38 % 1016,2 hPa 0,0 l/m 0,97 h 0,00 h 1,6 UV-I 539 W/m 11,7 km/h (2 Bft)
17.04.2014 17:00 17,9 C 16,8 C 40 % 1015,1 hPa 0,0 l/m 0,27 h 0,00 h 0,6 UV-I 239 W/m 10,6 km/h (2 Bft)
17.04.2014 18:00 17,3 C 15,6 C 40 % 1014,5 hPa 0,0 l/m 0,00 h 0,00 h 0,0 UV-I 113 W/m 10,4 km/h (2 Bft)
17.04.2014 19:00 16,3 C 14,2 C 44 % 1014,0 hPa 0,0 l/m 0,00 h 0,07 h 0,0 UV-I 31 W/m 2,8 km/h (1 Bft)
17.04.2014 20:00 15,5 C 13,1 C 47 % 1013,9 hPa 0,0 l/m 0,00 h 0,00 h 0,0 UV-I 8 W/m 1,4 km/h (1 Bft)
17.04.2014 21:00 14,3 C 12,1 C 52 % 1013,5 hPa 0,0 l/m 0,00 h 0,13 h 0,0 UV-I 0 W/m 3,6 km/h (1 Bft)
17.04.2014 22:00 13,6 C 11,7 C 58 % 1013,1 hPa 0,0 l/m 0,00 h 0,00 h 0,0 UV-I 0 W/m 4,3 km/h (1 Bft)
17.04.2014 23:00 12,4 C 11,0 C 68 % 1013,0 hPa 0,0 l/m 0,00 h 0,00 h 0,0 UV-I 0 W/m 13,1 km/h (3 Bft)
18.04.2014 00:00 10,7 C 8,9 C 83 % 1013,1 hPa 0,0 l/m 0,00 h 0,87 h 0,0 UV-I 0 W/m 8,3 km/h (2 Bft)
18.04.2014 01:00 9,2 C 7,6 C 92 % 1013,1 hPa 0,4 l/m 0,00 h 0,93 h 0,0 UV-I 0 W/m 8,4 km/h (2 Bft)
18.04.2014 02:00 8,5 C 7,2 C 94 % 1012,9 hPa 0,2 l/m 0,00 h 0,67 h 0,0 UV-I 0 W/m 3,4 km/h (1 Bft)
18.04.2014 03:00 8,2 C 6,9 C 96 % 1012,5 hPa 0,0 l/m 0,00 h 0,00 h 0,0 UV-I 0 W/m 0,3 km/h (0 Bft)
18.04.2014 04:00 7,0 C 5,5 C 96 % 1012,6 hPa 0,0 l/m 0,00 h 0,07 h 0,0 UV-I 0 W/m 0,1 km/h (0 Bft)
18.04.2014 05:00 6,2 C 4,7 C 96 % 1012,8 hPa 0,0 l/m 0,00 h 0,03 h 0,0 UV-I 0 W/m 0,4 km/h (0 Bft)
18.04.2014 06:00 5,2 C 3,7 C 95 % 1013,0 hPa 0,2 l/m 0,00 h 0,00 h 0,0 UV-I 9 W/m 0,8 km/h (0 Bft)
18.04.2014 07:00 5,3 C 3,8 C 95 % 1013,4 hPa 0,0 l/m 0,00 h 0,00 h 0,0 UV-I 29 W/m 1,8 km/h (1 Bft)
18.04.2014 08:00 6,7 C 5,1 C 92 % 1013,9 hPa 0,0 l/m 0,33 h 0,03 h 0,0 UV-I 131 W/m 11,2 km/h (2 Bft)
18.04.2014 09:00 8,1 C 7,3 C 83 % 1014,2 hPa 0,0 l/m 0,63 h 0,00 h 0,5 UV-I 277 W/m 19,3 km/h (3 Bft)
18.04.2014 10:00 9,3 C 9,1 C 76 % 1014,5 hPa 0,0 l/m 0,27 h 0,00 h 0,9 UV-I 330 W/m 17,8 km/h (3 Bft)
18.04.2014 11:00 10,2 C 10,3 C 67 % 1014,7 hPa 0,0 l/m 0,50 h 0,00 h 1,5 UV-I 521 W/m 21,1 km/h (4 Bft)
18.04.2014 12:00 11,3 C 11,7 C 62 % 1014,7 hPa 0,0 l/m 0,37 h 0,00 h 1,7 UV-I 537 W/m 18,1 km/h (3 Bft)
18.04.2014 13:00 10,8 C 10,6 C 65 % 1014,7 hPa 0,0 l/m 0,33 h 0,13 h 1,2 UV-I 571 W/m 21,8 km/h (4 Bft)
18.04.2014 14:00 12,3 C 12,0 C 55 % 1014,5 hPa 0,0 l/m 0,53 h 0,00 h 1,8 UV-I 567 W/m 23,9 km/h (4 Bft)
18.04.2014 15:00 12,8 C 12,6 C 53 % 1014,5 hPa 0,0 l/m 0,67 h 0,00 h 2,1 UV-I 621 W/m 19,0 km/h (3 Bft)
18.04.2014 16:00 12,4 C 12,3 C 57 % 1014,4 hPa 0,0 l/m 0,20 h 0,03 h 0,9 UV-I 272 W/m 18,1 km/h (3 Bft)
18.04.2014 17:00 12,4 C 11,9 C 61 % 1014,2 hPa 0,0 l/m 0,43 h 0,00 h 0,6 UV-I 304 W/m 20,1 km/h (4 Bft)
18.04.2014 18:00 11,1 C 10,3 C 64 % 1014,4 hPa 0,0 l/m 0,10 h 0,00 h 0,0 UV-I 117 W/m 19,1 km/h (3 Bft)
18.04.2014 19:00 10,7 C 9,7 C 67 % 1014,4 hPa 0,0 l/m 0,00 h 0,00 h 0,0 UV-I 47 W/m 21,8 km/h (4 Bft)
18.04.2014 20:00 9,3 C 8,0 C 69 % 1014,8 hPa 0,0 l/m 0,00 h 0,00 h 0,0 UV-I 10 W/m 21,0 km/h (4 Bft)
18.04.2014 21:00 7,7 C 6,4 C 77 % 1015,4 hPa 0,0 l/m 0,00 h 0,00 h 0,0 UV-I 0 W/m 6,7 km/h (2 Bft)
18.04.2014 22:00 6,1 C 4,2 C 83 % 1015,5 hPa 0,0 l/m 0,00 h 0,00 h 0,0 UV-I 0 W/m 0,0 km/h (0 Bft)
18.04.2014 23:00 5,4 C 3,7 C 86 % 1015,6 hPa 0,0 l/m 0,00 h 0,00 h 0,0 UV-I 0 W/m 0,0 km/h (0 Bft)
19.04.2014 00:00 5,1 C 3,8 C 88 % 1015,8 hPa 0,0 l/m 0,00 h 0,00 h 0,0 UV-I 0 W/m 0,0 km/h (0 Bft)
19.04.2014 01:00 4,5 C 3,0 C 91 % 1015,8 hPa 0,0 l/m 0,00 h 0,00 h 0,0 UV-I 0 W/m 0,0 km/h (0 Bft)
19.04.2014 02:00 4,2 C 3,0 C 93 % 1015,6 hPa 0,0 l/m 0,00 h 0,00 h 0,0 UV-I 0 W/m 0,0 km/h (0 Bft)
19.04.2014 03:00 4,0 C 2,9 C 94 % 1015,4 hPa 0,0 l/m 0,00 h 0,00 h 0,0 UV-I 0 W/m 0,0 km/h (0 Bft)
19.04.2014 04:00 3,5 C 2,3 C 95 % 1015,3 hPa 0,0 l/m 0,00 h 0,00 h 0,0 UV-I 0 W/m 0,0 km/h (0 Bft)
19.04.2014 05:00 3,9 C 3,1 C 95 % 1015,9 hPa 0,0 l/m 0,00 h 0,00 h 0,0 UV-I 0 W/m 0,0 km/h (0 Bft)
19.04.2014 06:00 3,8 C 2,7 C 95 % 1016,3 hPa 0,0 l/m 0,00 h 0,00 h 0,0 UV-I 11 W/m 0,0 km/h (0 Bft)
19.04.2014 07:00 3,9 C 3,0 C 96 % 1016,7 hPa 0,0 l/m 0,00 h 0,00 h 0,0 UV-I 47 W/m 0,0 km/h (0 Bft)
19.04.2014 08:00 6,3 C 5,3 C 94 % 1017,1 hPa 0,0 l/m 0,63 h 0,00 h 0,0 UV-I 185 W/m 1,9 km/h (1 Bft)
19.04.2014 09:00 9,1 C 8,9 C 81 % 1017,5 hPa 0,0 l/m 0,97 h 0,00 h 0,5 UV-I 376 W/m 7,0 km/h (2 Bft)
19.04.2014 10:00 10,8 C 10,6 C 71 % 1017,5 hPa 0,0 l/m 0,87 h 0,00 h 1,0 UV-I 513 W/m 12,9 km/h (3 Bft)
19.04.2014 11:00 12,3 C 12,1 C 65 % 1017,5 hPa 0,0 l/m 0,90 h 0,00 h 1,9 UV-I 624 W/m 15,2 km/h (3 Bft)
19.04.2014 12:00 13,8 C 14,1 C 59 % 1016,7 hPa 0,0 l/m 1,00 h 0,00 h 2,4 UV-I 719 W/m 15,1 km/h (3 Bft)
19.04.2014 13:00 15,1 C 14,8 C 56 % 1016,2 hPa 0,0 l/m 0,97 h 0,00 h 1,7 UV-I 747 W/m 15,8 km/h (3 Bft)
19.04.2014 14:00 15,9 C 15,2 C 55 % 1015,7 hPa 0,0 l/m 0,97 h 0,00 h 2,8 UV-I 725 W/m 15,2 km/h (3 Bft)
19.04.2014 15:00 16,6 C 15,9 C 55 % 1014,9 hPa 0,0 l/m 0,97 h 0,00 h 2,2 UV-I 662 W/m 18,3 km/h (3 Bft)
19.04.2014 16:00 17,5 C 16,9 C 53 % 1013,9 hPa 0,0 l/m 0,97 h 0,00 h 1,4 UV-I 557 W/m 16,5 km/h (3 Bft)
19.04.2014 17:00 17,8 C 16,4 C 55 % 1013,1 hPa 0,0 l/m 0,88 h 0,00 h 0,7 UV-I 380 W/m 19,1 km/h (3 Bft)
19.04.2014 18:00 17,1 C 15,5 C 58 % 1012,7 hPa 0,0 l/m 0,20 h 0,00 h 0,0 UV-I 135 W/m 17,1 km/h (3 Bft)
19.04.2014 19:00 15,9 C 14,1 C 60 % 1012,4 hPa 0,0 l/m 0,00 h 0,00 h 0,0 UV-I 45 W/m 13,7 km/h (3 Bft)
19.04.2014 20:00 14,6 C 12,7 C 67 % 1012,5 hPa 0,0 l/m 0,00 h 0,00 h 0,0 UV-I 12 W/m 9,1 km/h (2 Bft)
19.04.2014 21:00 14,0 C 12,1 C 71 % 1012,4 hPa 0,0 l/m 0,00 h 0,00 h 0,0 UV-I 0 W/m 7,3 km/h (2 Bft)
19.04.2014 22:00 13,6 C 11,7 C 74 % 1012,1 hPa 0,0 l/m 0,00 h 0,00 h 0,0 UV-I 0 W/m 7,7 km/h (2 Bft)
19.04.2014 23:00 13,2 C 11,2 C 78 % 1011,7 hPa 0,0 l/m 0,00 h 0,00 h 0,0 UV-I 0 W/m 6,9 km/h (2 Bft)
20.04.2014 00:00 12,6 C 10,7 C 80 % 1011,4 hPa 0,0 l/m 0,00 h 0,00 h 0,0 UV-I 0 W/m 2,5 km/h (1 Bft)
20.04.2014 01:00 12,0 C 10,1 C 81 % 1010,9 hPa 0,0 l/m 0,00 h 0,00 h 0,0 UV-I 0 W/m 2,8 km/h (1 Bft)
20.04.2014 02:00 11,7 C 10,0 C 84 % 1010,1 hPa 0,0 l/m 0,00 h 0,00 h 0,0 UV-I 0 W/m 3,6 km/h (1 Bft)
20.04.2014 03:00 11,4 C 9,5 C 87 % 1009,6 hPa 0,0 l/m 0,00 h 0,00 h 0,0 UV-I 0 W/m 2,0 km/h (1 Bft)
20.04.2014 04:00 11,1 C 9,3 C 89 % 1009,3 hPa 0,0 l/m 0,00 h 0,00 h 0,0 UV-I 0 W/m 1,8 km/h (1 Bft)
20.04.2014 05:00 11,0 C 9,4 C 90 % 1008,7 hPa 0,0 l/m 0,00 h 0,00 h 0,0 UV-I 0 W/m 0,8 km/h (0 Bft)
20.04.2014 06:00 11,5 C 10,2 C 89 % 1008,4 hPa 0,0 l/m 0,00 h 0,00 h 0,0 UV-I 6 W/m 1,6 km/h (1 Bft)
20.04.2014 07:00 11,8 C 10,6 C 89 % 1008,2 hPa 0,0 l/m 0,00 h 0,00 h 0,0 UV-I 27 W/m 1,1 km/h (0 Bft)
20.04.2014 08:00 12,6 C 11,7 C 87 % 1007,9 hPa 0,0 l/m 0,00 h 0,00 h 0,0 UV-I 94 W/m 4,5 km/h (1 Bft)
20.04.2014 09:00 14,4 C 14,4 C 81 % 1007,6 hPa 0,0 l/m 0,43 h 0,00 h 0,5 UV-I 297 W/m 7,7 km/h (2 Bft)
20.04.2014 10:00 16,8 C 16,3 C 72 % 1006,9 hPa 0,0 l/m 0,77 h 0,00 h 0,9 UV-I 426 W/m 9,9 km/h (2 Bft)
20.04.2014 11:00 19,3 C 18,6 C 63 % 1006,1 hPa 0,0 l/m 0,97 h 0,00 h 1,7 UV-I 603 W/m 15,0 km/h (3 Bft)
20.04.2014 12:00 20,3 C 19,9 C 59 % 1005,3 hPa 0,0 l/m 0,40 h 0,00 h 1,6 UV-I 440 W/m 17,8 km/h (3 Bft)
20.04.2014 13:00 21,0 C 20,2 C 55 % 1005,0 hPa 0,0 l/m 0,40 h 0,00 h 1,5 UV-I 504 W/m 20,0 km/h (4 Bft)
20.04.2014 14:00 23,0 C 22,1 C 47 % 1004,8 hPa 0,0 l/m 0,90 h 0,00 h 2,6 UV-I 752 W/m 25,6 km/h (4 Bft)
20.04.2014 15:00 22,9 C 21,7 C 45 % 1004,3 hPa 0,0 l/m 0,90 h 0,00 h 2,2 UV-I 658 W/m 19,2 km/h (3 Bft)
20.04.2014 16:00 23,0 C 22,3 C 44 % 1004,0 hPa 0,0 l/m 0,67 h 0,00 h 1,4 UV-I 512 W/m 21,1 km/h (4 Bft)
20.04.2014 17:00 22,1 C 20,4 C 45 % 1003,8 hPa 0,0 l/m 0,57 h 0,00 h 0,7 UV-I 309 W/m 17,0 km/h (3 Bft)
20.04.2014 18:00 21,0 C 19,1 C 46 % 1003,9 hPa 0,0 l/m 0,00 h 0,00 h 0,5 UV-I 85 W/m 12,9 km/h (3 Bft)
20.04.2014 19:00 19,9 C 17,6 C 48 % 1004,1 hPa 0,0 l/m 0,00 h 0,00 h 0,0 UV-I 45 W/m 5,8 km/h (2 Bft)
20.04.2014 20:00 18,8 C 16,2 C 49 % 1004,6 hPa 0,0 l/m 0,00 h 0,00 h 0,0 UV-I 9 W/m 4,2 km/h (1 Bft)
20.04.2014 21:00 17,4 C 14,6 C 54 % 1005,2 hPa 0,0 l/m 0,00 h 0,00 h 0,0 UV-I 0 W/m 1,6 km/h (1 Bft)
20.04.2014 22:00 15,7 C 12,8 C 60 % 1005,7 hPa 0,0 l/m 0,00 h 0,00 h 0,0 UV-I 0 W/m 0,5 km/h (0 Bft)
20.04.2014 23:00 14,1 C 11,1 C 66 % 1005,9 hPa 0,0 l/m 0,00 h 0,00 h 0,0 UV-I 0 W/m 0,0 km/h (0 Bft)
Min-Datum _ 16.04.14 16.04.14 17.04.14 20.04.14 - - - - - 14.04.14
_ Min-Zeit 06:22 05:40 16:00 16:52 - - - - - 00:00
Minimum _ -0,5 C -1,7 C 36 % 1003,7 hPa - - - - - 0,0 km/h (0 Bft)
Max-Datum _ 20.04.14 20.04.14 15.04.14 16.04.14 14.04.14 14.04.14 14.04.14 15.04.14 15.04.14 14.04.14
_ Max-Zeit 16:22 16:20 03:20 10:16 13:30 06:54 07:38 14:18 14:24 16:16
Maximum _ 23,9 C 23,9 C 98 % 1031,0 hPa 0,4 l/m 0,03 h 0,03 h 3,4 UV-I 1067 W/m 48,9 km/h
N-NW (6 Bft)
Durchschnitt _ 10,3 C 9,1 C 72 % 1018,4 hPa #2,0 l/m #44:55 h #5:16 h 1,4 UV-I 312 W/m 8,8 km/h (2 Bft)
© 2014 W. Hausmann